sensor_id;sensor_type;location;lat;lon;timestamp;pressure;altitude;pressure_sealevel;temperature;humidity
61761;BME280;47664;51.660;-0.100;2022-12-16T00:00:21;100770.90;;;-0.54;61.10
61761;BME280;47664;51.660;-0.100;2022-12-16T00:02:54;100774.75;;;-0.91;60.69
61761;BME280;47664;51.660;-0.100;2022-12-16T00:05:27;100776.88;;;-0.75;60.44
61761;BME280;47664;51.660;-0.100;2022-12-16T00:07:59;100777.42;;;-0.37;60.27
61761;BME280;47664;51.660;-0.100;2022-12-16T00:10:31;100780.29;;;-0.73;59.83
61761;BME280;47664;51.660;-0.100;2022-12-16T00:13:03;100777.62;;;-0.69;59.60
61761;BME280;47664;51.660;-0.100;2022-12-16T00:15:36;100767.18;;;-0.94;60.38
61761;BME280;47664;51.660;-0.100;2022-12-16T00:18:08;100764.08;;;-1.47;61.70
61761;BME280;47664;51.660;-0.100;2022-12-16T00:20:44;100772.40;;;-1.24;62.25
61761;BME280;47664;51.660;-0.100;2022-12-16T00:23:17;100775.54;;;-0.76;61.95
61761;BME280;47664;51.660;-0.100;2022-12-16T00:25:49;100777.16;;;-0.84;61.35
61761;BME280;47664;51.660;-0.100;2022-12-16T00:28:22;100776.43;;;-0.70;60.28
61761;BME280;47664;51.660;-0.100;2022-12-16T00:30:56;100777.32;;;-0.68;60.24
61761;BME280;47664;51.660;-0.100;2022-12-16T00:33:30;100777.86;;;-0.84;60.52
61761;BME280;47664;51.660;-0.100;2022-12-16T00:36:02;100772.92;;;-1.01;60.83
61761;BME280;47664;51.660;-0.100;2022-12-16T00:38:34;100766.95;;;-0.98;60.77
61761;BME280;47664;51.660;-0.100;2022-12-16T00:41:06;100767.34;;;-0.90;60.97
61761;BME280;47664;51.660;-0.100;2022-12-16T00:43:38;100772.65;;;-0.94;61.71
61761;BME280;47664;51.660;-0.100;2022-12-16T00:46:11;100770.61;;;-0.73;61.55
61761;BME280;47664;51.660;-0.100;2022-12-16T00:48:42;100771.23;;;-1.14;61.86
61761;BME280;47664;51.660;-0.100;2022-12-16T00:51:15;100770.90;;;-1.61;62.97
61761;BME280;47664;51.660;-0.100;2022-12-16T00:53:47;100772.19;;;-1.29;63.50
61761;BME280;47664;51.660;-0.100;2022-12-16T00:56:20;100771.57;;;-1.63;64.12
61761;BME280;47664;51.660;-0.100;2022-12-16T00:58:52;100773.29;;;-1.50;63.74
61761;BME280;47664;51.660;-0.100;2022-12-16T01:01:24;100772.30;;;-0.84;62.03
61761;BME280;47664;51.660;-0.100;2022-12-16T01:03:56;100771.47;;;-0.86;61.88
61761;BME280;47664;51.660;-0.100;2022-12-16T01:06:29;100777.60;;;-1.47;63.22
61761;BME280;47664;51.660;-0.100;2022-12-16T01:09:01;100790.02;;;-1.05;62.11
61761;BME280;47664;51.660;-0.100;2022-12-16T01:11:34;100787.59;;;-1.37;61.46
61761;BME280;47664;51.660;-0.100;2022-12-16T01:14:06;100793.81;;;-1.08;60.61
61761;BME280;47664;51.660;-0.100;2022-12-16T01:16:39;100793.39;;;-0.91;60.02
61761;BME280;47664;51.660;-0.100;2022-12-16T01:19:11;100791.99;;;-0.79;59.73
61761;BME280;47664;51.660;-0.100;2022-12-16T01:21:43;100791.39;;;-0.54;58.98
61761;BME280;47664;51.660;-0.100;2022-12-16T01:24:16;100790.39;;;-0.60;58.60
61761;BME280;47664;51.660;-0.100;2022-12-16T01:26:48;100791.72;;;-0.89;58.75
61761;BME280;47664;51.660;-0.100;2022-12-16T01:29:20;100794.03;;;-0.82;59.82
61761;BME280;47664;51.660;-0.100;2022-12-16T01:31:52;100791.16;;;-0.64;59.30
61761;BME280;47664;51.660;-0.100;2022-12-16T01:34:24;100795.17;;;-0.84;59.33
61761;BME280;47664;51.660;-0.100;2022-12-16T01:36:57;100797.07;;;-0.49;58.87
61761;BME280;47664;51.660;-0.100;2022-12-16T01:39:29;100793.57;;;-0.94;58.96
61761;BME280;47664;51.660;-0.100;2022-12-16T01:42:01;100800.41;;;-0.47;58.60
61761;BME280;47664;51.660;-0.100;2022-12-16T01:44:34;100801.92;;;-0.51;58.74
61761;BME280;47664;51.660;-0.100;2022-12-16T01:47:08;100803.00;;;-0.63;58.88
61761;BME280;47664;51.660;-0.100;2022-12-16T01:49:42;100811.31;;;-0.50;58.35
61761;BME280;47664;51.660;-0.100;2022-12-16T01:52:17;100816.53;;;-0.55;59.00
61761;BME280;47664;51.660;-0.100;2022-12-16T01:54:54;100817.54;;;-0.52;58.32
61761;BME280;47664;51.660;-0.100;2022-12-16T01:57:27;100820.41;;;-0.81;59.12
61761;BME280;47664;51.660;-0.100;2022-12-16T02:00:04;100824.84;;;-0.25;58.62
61761;BME280;47664;51.660;-0.100;2022-12-16T02:02:37;100826.71;;;-0.81;58.78
61761;BME280;47664;51.660;-0.100;2022-12-16T02:05:10;100829.06;;;-0.70;58.21
61761;BME280;47664;51.660;-0.100;2022-12-16T02:07:53;100834.54;;;-0.93;58.95
61761;BME280;47664;51.660;-0.100;2022-12-16T02:10:27;100837.72;;;-0.80;58.77
61761;BME280;47664;51.660;-0.100;2022-12-16T02:13:02;100839.89;;;-0.70;58.43
61761;BME280;47664;51.660;-0.100;2022-12-16T02:15:37;100838.56;;;-0.88;58.26
61761;BME280;47664;51.660;-0.100;2022-12-16T02:18:14;100836.28;;;-0.57;58.22
61761;BME280;47664;51.660;-0.100;2022-12-16T02:22:03;100840.85;;;-0.52;58.22
61761;BME280;47664;51.660;-0.100;2022-12-16T02:24:51;100843.43;;;-0.65;58.04
61761;BME280;47664;51.660;-0.100;2022-12-16T02:27:42;100849.46;;;-1.30;58.59
61761;BME280;47664;51.660;-0.100;2022-12-16T02:31:18;100851.89;;;-0.31;58.14
61761;BME280;47664;51.660;-0.100;2022-12-16T02:34:00;100855.08;;;-0.72;57.83
61761;BME280;47664;51.660;-0.100;2022-12-16T02:36:42;100855.33;;;-0.80;58.15
61761;BME280;47664;51.660;-0.100;2022-12-16T02:39:19;100861.73;;;-0.91;58.16
61761;BME280;47664;51.660;-0.100;2022-12-16T02:41:55;100862.73;;;-0.85;58.27
61761;BME280;47664;51.660;-0.100;2022-12-16T02:44:34;100859.86;;;-1.38;59.02
61761;BME280;47664;51.660;-0.100;2022-12-16T02:47:11;100863.47;;;-0.87;59.24
61761;BME280;47664;51.660;-0.100;2022-12-16T02:49:48;100859.47;;;-1.03;59.12
61761;BME280;47664;51.660;-0.100;2022-12-16T02:52:24;100866.03;;;-1.31;60.55
61761;BME280;47664;51.660;-0.100;2022-12-16T02:55:00;100868.13;;;-1.30;60.96
61761;BME280;47664;51.660;-0.100;2022-12-16T02:57:54;100868.37;;;-1.87;61.48
61761;BME280;47664;51.660;-0.100;2022-12-16T03:00:32;100869.88;;;-1.97;60.98
61761;BME280;47664;51.660;-0.100;2022-12-16T03:03:07;100870.55;;;-1.53;60.30
61761;BME280;47664;51.660;-0.100;2022-12-16T03:05:44;100871.93;;;-1.54;61.31
61761;BME280;47664;51.660;-0.100;2022-12-16T03:08:21;100877.42;;;-1.43;60.74
61761;BME280;47664;51.660;-0.100;2022-12-16T03:10:56;100875.27;;;-1.34;60.72
61761;BME280;47664;51.660;-0.100;2022-12-16T03:13:34;100875.17;;;-1.84;61.36
61761;BME280;47664;51.660;-0.100;2022-12-16T03:16:09;100876.31;;;-1.30;61.91
61761;BME280;47664;51.660;-0.100;2022-12-16T03:18:45;100878.38;;;-1.27;61.40
61761;BME280;47664;51.660;-0.100;2022-12-16T03:21:18;100881.26;;;-1.17;60.71
61761;BME280;47664;51.660;-0.100;2022-12-16T03:23:56;100885.07;;;-1.35;61.40
61761;BME280;47664;51.660;-0.100;2022-12-16T03:26:29;100885.32;;;-2.20;61.87
61761;BME280;47664;51.660;-0.100;2022-12-16T03:29:02;100887.87;;;-1.69;61.78
61761;BME280;47664;51.660;-0.100;2022-12-16T03:31:37;100887.36;;;-1.68;62.10
61761;BME280;47664;51.660;-0.100;2022-12-16T03:34:11;100888.05;;;-1.57;62.28
61761;BME280;47664;51.660;-0.100;2022-12-16T03:36:48;100886.07;;;-1.36;61.65
61761;BME280;47664;51.660;-0.100;2022-12-16T03:39:23;100882.48;;;-1.23;61.17
61761;BME280;47664;51.660;-0.100;2022-12-16T03:41:57;100884.36;;;-1.33;61.02
61761;BME280;47664;51.660;-0.100;2022-12-16T03:44:29;100879.56;;;-1.40;60.11
61761;BME280;47664;51.660;-0.100;2022-12-16T03:47:02;100883.77;;;-0.63;59.51
61761;BME280;47664;51.660;-0.100;2022-12-16T03:49:34;100883.68;;;-1.20;59.43
61761;BME280;47664;51.660;-0.100;2022-12-16T03:52:07;100884.18;;;-0.95;59.43
61761;BME280;47664;51.660;-0.100;2022-12-16T03:54:39;100882.88;;;-1.16;59.22
61761;BME280;47664;51.660;-0.100;2022-12-16T03:57:12;100886.86;;;-1.34;59.72
61761;BME280;47664;51.660;-0.100;2022-12-16T03:59:43;100887.21;;;-1.14;59.51
61761;BME280;47664;51.660;-0.100;2022-12-16T04:02:15;100889.68;;;-1.76;62.06
61761;BME280;47664;51.660;-0.100;2022-12-16T04:04:47;100888.45;;;-1.78;63.39
61761;BME280;47664;51.660;-0.100;2022-12-16T04:07:20;100885.64;;;-1.57;63.26
61761;BME280;47664;51.660;-0.100;2022-12-16T04:09:52;100885.76;;;-1.85;63.20
61761;BME280;47664;51.660;-0.100;2022-12-16T04:12:25;100886.53;;;-1.75;63.27
61761;BME280;47664;51.660;-0.100;2022-12-16T04:14:57;100884.92;;;-1.48;63.26
61761;BME280;47664;51.660;-0.100;2022-12-16T04:17:29;100887.47;;;-2.15;62.98
61761;BME280;47664;51.660;-0.100;2022-12-16T04:20:01;100890.33;;;-1.79;63.58
61761;BME280;47664;51.660;-0.100;2022-12-16T04:22:36;100894.90;;;-2.35;63.79
61761;BME280;47664;51.660;-0.100;2022-12-16T04:25:13;100899.80;;;-1.94;63.75
61761;BME280;47664;51.660;-0.100;2022-12-16T04:27:46;100900.87;;;-1.88;63.15
61761;BME280;47664;51.660;-0.100;2022-12-16T04:30:19;100905.16;;;-1.68;62.66
61761;BME280;47664;51.660;-0.100;2022-12-16T04:32:54;100902.54;;;-1.33;61.84
61761;BME280;47664;51.660;-0.100;2022-12-16T04:35:28;100902.57;;;-1.61;61.29
61761;BME280;47664;51.660;-0.100;2022-12-16T04:38:00;100903.33;;;-1.05;60.38
61761;BME280;47664;51.660;-0.100;2022-12-16T04:40:33;100908.98;;;-1.36;59.89
61761;BME280;47664;51.660;-0.100;2022-12-16T04:43:05;100906.19;;;-1.05;59.54
61761;BME280;47664;51.660;-0.100;2022-12-16T04:45:37;100909.54;;;-0.99;58.91
61761;BME280;47664;51.660;-0.100;2022-12-16T04:48:09;100909.20;;;-0.83;58.12
61761;BME280;47664;51.660;-0.100;2022-12-16T04:50:43;100909.47;;;-0.78;57.68
61761;BME280;47664;51.660;-0.100;2022-12-16T04:53:15;100908.50;;;-0.97;57.99
61761;BME280;47664;51.660;-0.100;2022-12-16T04:55:47;100910.08;;;-0.97;58.04
61761;BME280;47664;51.660;-0.100;2022-12-16T04:58:20;100907.40;;;-0.83;57.10
61761;BME280;47664;51.660;-0.100;2022-12-16T05:00:52;100912.27;;;-0.73;58.10
61761;BME280;47664;51.660;-0.100;2022-12-16T05:03:24;100916.46;;;-1.28;57.94
61761;BME280;47664;51.660;-0.100;2022-12-16T05:05:56;100914.47;;;-1.07;58.14
61761;BME280;47664;51.660;-0.100;2022-12-16T05:08:29;100918.64;;;-1.33;57.92
61761;BME280;47664;51.660;-0.100;2022-12-16T05:11:01;100921.60;;;-1.22;57.63
61761;BME280;47664;51.660;-0.100;2022-12-16T05:13:33;100921.24;;;-1.15;57.49
61761;BME280;47664;51.660;-0.100;2022-12-16T05:16:06;100923.89;;;-1.08;57.23
61761;BME280;47664;51.660;-0.100;2022-12-16T05:18:38;100926.90;;;-0.84;57.60
61761;BME280;47664;51.660;-0.100;2022-12-16T05:21:10;100922.97;;;-1.46;57.61
61761;BME280;47664;51.660;-0.100;2022-12-16T05:23:42;100923.47;;;-1.40;57.51
61761;BME280;47664;51.660;-0.100;2022-12-16T05:26:14;100923.95;;;-1.38;57.60
61761;BME280;47664;51.660;-0.100;2022-12-16T05:28:46;100922.82;;;-1.34;57.52
61761;BME280;47664;51.660;-0.100;2022-12-16T05:31:19;100925.96;;;-1.44;57.61
61761;BME280;47664;51.660;-0.100;2022-12-16T05:33:51;100931.12;;;-1.21;58.00
61761;BME280;47664;51.660;-0.100;2022-12-16T05:36:23;100930.85;;;-1.21;57.69
61761;BME280;47664;51.660;-0.100;2022-12-16T05:38:55;100933.09;;;-1.14;57.31
61761;BME280;47664;51.660;-0.100;2022-12-16T05:41:28;100935.41;;;-1.27;57.01
61761;BME280;47664;51.660;-0.100;2022-12-16T05:44:00;100938.27;;;-1.18;56.44
61761;BME280;47664;51.660;-0.100;2022-12-16T05:46:37;100941.84;;;-1.86;57.61
61761;BME280;47664;51.660;-0.100;2022-12-16T05:49:09;100943.46;;;-1.39;57.51
61761;BME280;47664;51.660;-0.100;2022-12-16T05:51:42;100944.84;;;-1.61;58.34
61761;BME280;47664;51.660;-0.100;2022-12-16T05:54:14;100949.04;;;-1.73;58.59
61761;BME280;47664;51.660;-0.100;2022-12-16T05:56:46;100949.94;;;-1.56;57.90
61761;BME280;47664;51.660;-0.100;2022-12-16T05:59:18;100951.01;;;-1.52;58.10
61761;BME280;47664;51.660;-0.100;2022-12-16T06:01:50;100956.09;;;-1.43;57.49
61761;BME280;47664;51.660;-0.100;2022-12-16T06:04:23;100954.08;;;-1.68;57.87
61761;BME280;47664;51.660;-0.100;2022-12-16T06:06:55;100957.74;;;-1.46;58.26
61761;BME280;47664;51.660;-0.100;2022-12-16T06:09:27;100959.13;;;-1.93;58.67
61761;BME280;47664;51.660;-0.100;2022-12-16T06:12:00;100963.53;;;-1.92;58.64
61761;BME280;47664;51.660;-0.100;2022-12-16T06:14:32;100961.70;;;-1.67;58.21
61761;BME280;47664;51.660;-0.100;2022-12-16T06:17:05;100961.48;;;-2.27;58.53
61761;BME280;47664;51.660;-0.100;2022-12-16T06:19:36;100955.60;;;-2.01;59.41
61761;BME280;47664;51.660;-0.100;2022-12-16T06:22:09;100956.46;;;-1.78;59.91
61761;BME280;47664;51.660;-0.100;2022-12-16T06:24:41;100957.96;;;-1.94;59.54
61761;BME280;47664;51.660;-0.100;2022-12-16T06:27:13;100962.99;;;-1.82;58.70
61761;BME280;47664;51.660;-0.100;2022-12-16T06:29:45;100965.16;;;-1.68;58.24
61761;BME280;47664;51.660;-0.100;2022-12-16T06:32:18;100968.67;;;-1.49;58.26
61761;BME280;47664;51.660;-0.100;2022-12-16T06:34:50;100977.53;;;-1.57;56.59
61761;BME280;47664;51.660;-0.100;2022-12-16T06:37:23;100983.37;;;-1.47;56.46
61761;BME280;47664;51.660;-0.100;2022-12-16T06:39:56;100984.05;;;-1.06;55.90
61761;BME280;47664;51.660;-0.100;2022-12-16T06:42:28;100980.84;;;-1.89;56.40
61761;BME280;47664;51.660;-0.100;2022-12-16T06:45:00;100982.94;;;-1.59;57.18
61761;BME280;47664;51.660;-0.100;2022-12-16T06:47:32;100979.89;;;-1.64;56.66
61761;BME280;47664;51.660;-0.100;2022-12-16T06:50:05;100980.42;;;-1.35;57.10
61761;BME280;47664;51.660;-0.100;2022-12-16T06:52:37;100976.52;;;-2.00;57.65
61761;BME280;47664;51.660;-0.100;2022-12-16T06:55:09;100979.93;;;-2.04;57.23
61761;BME280;47664;51.660;-0.100;2022-12-16T06:57:42;100984.73;;;-2.01;56.63
61761;BME280;47664;51.660;-0.100;2022-12-16T07:00:15;100986.71;;;-1.93;57.63
61761;BME280;47664;51.660;-0.100;2022-12-16T07:02:48;100991.03;;;-2.46;59.28
61761;BME280;47664;51.660;-0.100;2022-12-16T07:05:20;101000.59;;;-2.78;60.12
61761;BME280;47664;51.660;-0.100;2022-12-16T07:07:53;101001.62;;;-3.09;61.57
61761;BME280;47664;51.660;-0.100;2022-12-16T07:10:25;101006.40;;;-3.60;62.63
61761;BME280;47664;51.660;-0.100;2022-12-16T07:12:56;101005.83;;;-3.46;63.17
61761;BME280;47664;51.660;-0.100;2022-12-16T07:15:29;101008.19;;;-3.75;62.98
61761;BME280;47664;51.660;-0.100;2022-12-16T07:18:00;101009.19;;;-3.03;62.28
61761;BME280;47664;51.660;-0.100;2022-12-16T07:20:33;101007.52;;;-3.60;62.50
61761;BME280;47664;51.660;-0.100;2022-12-16T07:23:05;101011.98;;;-3.36;62.56
61761;BME280;47664;51.660;-0.100;2022-12-16T07:25:38;101016.80;;;-3.38;62.50
61761;BME280;47664;51.660;-0.100;2022-12-16T07:28:10;101018.83;;;-2.73;61.67
61761;BME280;47664;51.660;-0.100;2022-12-16T07:30:42;101021.62;;;-2.97;62.43
61761;BME280;47664;51.660;-0.100;2022-12-16T07:33:15;101022.66;;;-2.90;61.91
61761;BME280;47664;51.660;-0.100;2022-12-16T07:35:47;101021.84;;;-2.87;61.26
61761;BME280;47664;51.660;-0.100;2022-12-16T07:38:19;101022.73;;;-2.94;61.11
61761;BME280;47664;51.660;-0.100;2022-12-16T07:40:52;101023.13;;;-2.88;61.63
61761;BME280;47664;51.660;-0.100;2022-12-16T07:43:24;101019.30;;;-2.94;62.36
61761;BME280;47664;51.660;-0.100;2022-12-16T07:45:56;101025.68;;;-2.72;63.08
61761;BME280;47664;51.660;-0.100;2022-12-16T07:48:28;101032.90;;;-2.53;62.04
61761;BME280;47664;51.660;-0.100;2022-12-16T07:51:00;101036.60;;;-2.27;61.25
61761;BME280;47664;51.660;-0.100;2022-12-16T07:53:33;101037.01;;;-2.82;61.35
61761;BME280;47664;51.660;-0.100;2022-12-16T07:56:05;101040.24;;;-2.99;62.33
61761;BME280;47664;51.660;-0.100;2022-12-16T07:58:37;101050.00;;;-2.66;62.58
61761;BME280;47664;51.660;-0.100;2022-12-16T08:01:09;101056.45;;;-2.94;62.86
61761;BME280;47664;51.660;-0.100;2022-12-16T08:03:41;101058.27;;;-2.55;62.62
61761;BME280;47664;51.660;-0.100;2022-12-16T08:06:14;101064.65;;;-2.99;62.80
61761;BME280;47664;51.660;-0.100;2022-12-16T08:08:46;101066.36;;;-2.77;62.26
61761;BME280;47664;51.660;-0.100;2022-12-16T08:11:18;101067.79;;;-2.62;61.87
61761;BME280;47664;51.660;-0.100;2022-12-16T08:13:50;101068.67;;;-3.01;62.51
61761;BME280;47664;51.660;-0.100;2022-12-16T08:16:23;101071.07;;;-3.19;62.70
61761;BME280;47664;51.660;-0.100;2022-12-16T08:18:55;101073.34;;;-2.94;62.98
61761;BME280;47664;51.660;-0.100;2022-12-16T08:21:27;101077.10;;;-2.90;62.18
61761;BME280;47664;51.660;-0.100;2022-12-16T08:24:00;101080.99;;;-2.82;61.96
61761;BME280;47664;51.660;-0.100;2022-12-16T08:26:32;101082.84;;;-3.01;61.88
61761;BME280;47664;51.660;-0.100;2022-12-16T08:29:04;101092.43;;;-2.61;61.87
61761;BME280;47664;51.660;-0.100;2022-12-16T08:31:36;101097.16;;;-2.36;60.99
61761;BME280;47664;51.660;-0.100;2022-12-16T08:34:09;101098.21;;;-2.72;61.59
61761;BME280;47664;51.660;-0.100;2022-12-16T08:36:42;101101.54;;;-2.21;60.53
61761;BME280;47664;51.660;-0.100;2022-12-16T08:39:14;101099.28;;;-2.70;60.31
61761;BME280;47664;51.660;-0.100;2022-12-16T08:41:46;101101.81;;;-2.66;61.12
61761;BME280;47664;51.660;-0.100;2022-12-16T08:44:18;101101.44;;;-2.76;61.27
61761;BME280;47664;51.660;-0.100;2022-12-16T08:46:50;101102.15;;;-3.42;62.82
61761;BME280;47664;51.660;-0.100;2022-12-16T08:49:23;101106.26;;;-3.31;63.50
61761;BME280;47664;51.660;-0.100;2022-12-16T08:51:56;101104.02;;;-3.05;63.36
61761;BME280;47664;51.660;-0.100;2022-12-16T08:54:29;101106.13;;;-3.24;63.02
61761;BME280;47664;51.660;-0.100;2022-12-16T08:57:01;101111.31;;;-2.77;62.30
61761;BME280;47664;51.660;-0.100;2022-12-16T08:59:33;101110.83;;;-2.47;61.34
61761;BME280;47664;51.660;-0.100;2022-12-16T09:02:06;101107.84;;;-2.91;61.84
61761;BME280;47664;51.660;-0.100;2022-12-16T09:04:38;101108.77;;;-2.91;62.12
61761;BME280;47664;51.660;-0.100;2022-12-16T09:07:11;101107.47;;;-3.02;62.79
61761;BME280;47664;51.660;-0.100;2022-12-16T09:09:43;101109.82;;;-2.99;62.91
61761;BME280;47664;51.660;-0.100;2022-12-16T09:12:15;101114.76;;;-3.25;63.49
61761;BME280;47664;51.660;-0.100;2022-12-16T09:14:48;101118.64;;;-2.85;63.99
61761;BME280;47664;51.660;-0.100;2022-12-16T09:17:21;101117.46;;;-2.54;63.63
61761;BME280;47664;51.660;-0.100;2022-12-16T09:19:53;101119.94;;;-2.34;63.13
61761;BME280;47664;51.660;-0.100;2022-12-16T09:22:26;101124.09;;;-1.70;61.45
61761;BME280;47664;51.660;-0.100;2022-12-16T09:24:59;101126.65;;;-1.42;60.45
61761;BME280;47664;51.660;-0.100;2022-12-16T09:27:31;101130.03;;;-1.38;59.32
61761;BME280;47664;51.660;-0.100;2022-12-16T09:30:03;101133.96;;;-1.26;58.58
61761;BME280;47664;51.660;-0.100;2022-12-16T09:32:39;101137.09;;;-1.10;58.37
61761;BME280;47664;51.660;-0.100;2022-12-16T09:35:12;101137.46;;;-0.79;57.84
61761;BME280;47664;51.660;-0.100;2022-12-16T09:37:45;101140.42;;;-1.44;58.83
61761;BME280;47664;51.660;-0.100;2022-12-16T09:40:18;101143.60;;;-1.60;59.72
61761;BME280;47664;51.660;-0.100;2022-12-16T09:42:53;101144.87;;;-1.99;60.62
61761;BME280;47664;51.660;-0.100;2022-12-16T09:45:32;101146.57;;;-2.29;61.90
61761;BME280;47664;51.660;-0.100;2022-12-16T09:48:11;101152.05;;;-2.08;62.67
61761;BME280;47664;51.660;-0.100;2022-12-16T09:50:48;101155.64;;;-2.03;61.65
61761;BME280;47664;51.660;-0.100;2022-12-16T09:53:26;101151.94;;;-1.59;60.82
61761;BME280;47664;51.660;-0.100;2022-12-16T09:56:04;101151.93;;;-1.25;59.90
61761;BME280;47664;51.660;-0.100;2022-12-16T09:58:39;101151.92;;;-1.35;59.86
61761;BME280;47664;51.660;-0.100;2022-12-16T10:01:12;101152.05;;;-0.93;59.23
61761;BME280;47664;51.660;-0.100;2022-12-16T10:03:45;101154.75;;;-0.99;58.68
61761;BME280;47664;51.660;-0.100;2022-12-16T10:06:29;101156.54;;;-1.15;59.10
61761;BME280;47664;51.660;-0.100;2022-12-16T10:09:04;101162.90;;;-1.43;59.56
61761;BME280;47664;51.660;-0.100;2022-12-16T10:11:47;101167.30;;;-1.23;59.25
61761;BME280;47664;51.660;-0.100;2022-12-16T10:14:20;101170.72;;;-0.86;59.56
61761;BME280;47664;51.660;-0.100;2022-12-16T10:16:55;101170.59;;;-0.80;59.65
61761;BME280;47664;51.660;-0.100;2022-12-16T10:19:30;101173.03;;;-1.00;59.31
61761;BME280;47664;51.660;-0.100;2022-12-16T10:22:06;101178.53;;;-1.05;60.24
61761;BME280;47664;51.660;-0.100;2022-12-16T10:24:46;101179.03;;;-1.78;61.78
61761;BME280;47664;51.660;-0.100;2022-12-16T10:27:24;101182.34;;;-1.72;62.55
61761;BME280;47664;51.660;-0.100;2022-12-16T10:29:59;101184.53;;;-1.80;61.92
61761;BME280;47664;51.660;-0.100;2022-12-16T10:32:32;101184.30;;;-1.64;61.81
61761;BME280;47664;51.660;-0.100;2022-12-16T10:35:15;101184.46;;;-1.36;61.74
61761;BME280;47664;51.660;-0.100;2022-12-16T10:37:50;101185.33;;;-1.67;61.88
61761;BME280;47664;51.660;-0.100;2022-12-16T10:40:24;101184.09;;;-1.34;61.85
61761;BME280;47664;51.660;-0.100;2022-12-16T10:43:00;101180.91;;;-0.88;60.85
61761;BME280;47664;51.660;-0.100;2022-12-16T10:45:32;101188.10;;;-1.16;60.43
61761;BME280;47664;51.660;-0.100;2022-12-16T10:48:06;101187.48;;;-0.94;60.88
61761;BME280;47664;51.660;-0.100;2022-12-16T10:50:40;101188.44;;;-1.67;61.75
61761;BME280;47664;51.660;-0.100;2022-12-16T10:53:13;101189.30;;;-1.00;61.57
61761;BME280;47664;51.660;-0.100;2022-12-16T10:55:54;101191.96;;;-1.01;60.94
61761;BME280;47664;51.660;-0.100;2022-12-16T10:58:30;101189.36;;;-1.41;61.02
61761;BME280;47664;51.660;-0.100;2022-12-16T11:01:20;101186.11;;;-1.22;61.58
61761;BME280;47664;51.660;-0.100;2022-12-16T11:03:53;101187.10;;;-1.11;62.13
61761;BME280;47664;51.660;-0.100;2022-12-16T11:06:27;101184.47;;;-1.26;61.37
61761;BME280;47664;51.660;-0.100;2022-12-16T11:09:19;101187.65;;;-0.89;61.47
61761;BME280;47664;51.660;-0.100;2022-12-16T11:11:51;101187.98;;;-0.81;60.68
61761;BME280;47664;51.660;-0.100;2022-12-16T11:14:22;101185.22;;;-0.53;60.02
61761;BME280;47664;51.660;-0.100;2022-12-16T11:17:10;101184.37;;;-0.33;60.22
61761;BME280;47664;51.660;-0.100;2022-12-16T11:19:43;101185.57;;;-1.21;61.16
61761;BME280;47664;51.660;-0.100;2022-12-16T11:22:18;101179.28;;;-1.10;62.33
61761;BME280;47664;51.660;-0.100;2022-12-16T11:25:03;101177.98;;;-1.19;62.68
61761;BME280;47664;51.660;-0.100;2022-12-16T11:27:36;101175.29;;;-1.19;62.72
61761;BME280;47664;51.660;-0.100;2022-12-16T11:30:15;101176.06;;;-1.02;62.21
61761;BME280;47664;51.660;-0.100;2022-12-16T11:32:46;101178.20;;;-0.89;61.90
61761;BME280;47664;51.660;-0.100;2022-12-16T11:35:23;101177.19;;;-0.32;61.21
61761;BME280;47664;51.660;-0.100;2022-12-16T11:37:58;101176.44;;;-0.12;59.86
61761;BME280;47664;51.660;-0.100;2022-12-16T11:40:33;101173.95;;;-0.23;58.84
61761;BME280;47664;51.660;-0.100;2022-12-16T11:43:08;101173.64;;;0.10;58.82
61761;BME280;47664;51.660;-0.100;2022-12-16T11:45:42;101170.21;;;-0.20;59.00
61761;BME280;47664;51.660;-0.100;2022-12-16T11:48:17;101170.54;;;-0.39;59.33
61761;BME280;47664;51.660;-0.100;2022-12-16T11:50:56;101167.21;;;-0.34;59.62
61761;BME280;47664;51.660;-0.100;2022-12-16T11:53:30;101166.45;;;-0.35;60.09
61761;BME280;47664;51.660;-0.100;2022-12-16T11:56:05;101164.27;;;-0.70;61.71
61761;BME280;47664;51.660;-0.100;2022-12-16T11:58:41;101166.19;;;-0.63;61.88
61761;BME280;47664;51.660;-0.100;2022-12-16T12:01:14;101166.67;;;-0.11;60.51
61761;BME280;47664;51.660;-0.100;2022-12-16T12:03:46;101170.44;;;0.18;59.04
61761;BME280;47664;51.660;-0.100;2022-12-16T12:06:22;101173.91;;;-0.06;58.42
61761;BME280;47664;51.660;-0.100;2022-12-16T12:08:59;101173.62;;;-0.03;59.99
61761;BME280;47664;51.660;-0.100;2022-12-16T12:11:37;101175.90;;;-0.42;61.12
61761;BME280;47664;51.660;-0.100;2022-12-16T12:14:16;101175.94;;;-0.09;60.65
61761;BME280;47664;51.660;-0.100;2022-12-16T12:16:58;101180.47;;;0.29;60.04
61761;BME280;47664;51.660;-0.100;2022-12-16T12:19:39;101179.40;;;0.48;59.09
61761;BME280;47664;51.660;-0.100;2022-12-16T12:22:22;101175.72;;;0.93;57.49
61761;BME280;47664;51.660;-0.100;2022-12-16T12:25:00;101176.22;;;0.28;58.48
61761;BME280;47664;51.660;-0.100;2022-12-16T12:27:36;101173.44;;;-0.06;59.43
61761;BME280;47664;51.660;-0.100;2022-12-16T12:30:11;101179.63;;;0.54;59.41
61761;BME280;47664;51.660;-0.100;2022-12-16T12:32:46;101179.49;;;0.60;58.71
61761;BME280;47664;51.660;-0.100;2022-12-16T12:35:28;101179.04;;;0.88;57.89
61761;BME280;47664;51.660;-0.100;2022-12-16T12:38:04;101183.49;;;0.47;59.27
61761;BME280;47664;51.660;-0.100;2022-12-16T12:40:43;101178.97;;;0.08;60.23
61761;BME280;47664;51.660;-0.100;2022-12-16T12:43:20;101180.19;;;-0.18;61.34
61761;BME280;47664;51.660;-0.100;2022-12-16T12:45:57;101182.38;;;-0.08;61.28
61761;BME280;47664;51.660;-0.100;2022-12-16T12:48:37;101182.39;;;-0.21;62.14
61761;BME280;47664;51.660;-0.100;2022-12-16T12:51:11;101187.59;;;-0.21;62.24
61761;BME280;47664;51.660;-0.100;2022-12-16T12:53:48;101189.24;;;-0.09;62.64
61761;BME280;47664;51.660;-0.100;2022-12-16T12:56:27;101189.35;;;0.07;61.51
61761;BME280;47664;51.660;-0.100;2022-12-16T12:59:07;101191.59;;;0.33;61.13
61761;BME280;47664;51.660;-0.100;2022-12-16T13:01:41;101192.53;;;0.37;61.40
61761;BME280;47664;51.660;-0.100;2022-12-16T13:04:12;101193.92;;;0.52;61.53
61761;BME280;47664;51.660;-0.100;2022-12-16T13:06:45;101194.87;;;0.45;61.55
61761;BME280;47664;51.660;-0.100;2022-12-16T13:09:30;101191.30;;;0.63;60.76
61761;BME280;47664;51.660;-0.100;2022-12-16T13:12:31;101189.67;;;0.82;59.62
61761;BME280;47664;51.660;-0.100;2022-12-16T13:15:03;101188.13;;;0.96;59.79
61761;BME280;47664;51.660;-0.100;2022-12-16T13:18:18;101185.98;;;0.85;59.90